createdAt,value
2019-02-27T00:01:24.149Z,102756.00
2019-02-27T00:03:53.769Z,102755.96
2019-02-27T00:06:24.177Z,102754.70
2019-02-27T00:08:53.941Z,102755.05
2019-02-27T00:11:23.558Z,102755.36
2019-02-27T00:13:53.249Z,102750.69
2019-02-27T00:16:23.103Z,102763.28
2019-02-27T00:18:53.734Z,102755.75
2019-02-27T00:21:23.985Z,102760.28
2019-02-27T00:23:56.720Z,102757.27
2019-02-27T00:26:24.999Z,102757.21
2019-02-27T00:28:56.132Z,102743.26
2019-02-27T00:31:27.533Z,102744.81
2019-02-27T00:33:59.933Z,102756.85
2019-02-27T00:36:29.257Z,102758.11
2019-02-27T00:38:58.991Z,102756.10
2019-02-27T00:41:28.738Z,102750.27
2019-02-27T00:44:01.062Z,102757.75
2019-02-27T00:46:29.748Z,102749.73
2019-02-27T00:48:59.884Z,102745.96
2019-02-27T00:51:30.852Z,102748.11
2019-02-27T00:54:00.885Z,102748.53
2019-02-27T00:56:30.520Z,102748.97
2019-02-27T00:59:00.912Z,102744.00
2019-02-27T01:01:30.964Z,102736.48
2019-02-27T01:04:02.394Z,102729.80
2019-02-27T01:06:32.167Z,102728.15
2019-02-27T01:09:03.935Z,102715.16
2019-02-27T01:11:34.994Z,102714.73
2019-02-27T01:14:06.510Z,102708.42
2019-02-27T01:16:36.967Z,102705.51
2019-02-27T01:19:06.588Z,102705.91
2019-02-27T01:21:36.878Z,102704.66
2019-02-27T01:24:06.535Z,102700.05
2019-02-27T01:26:36.159Z,102688.39
2019-02-27T01:29:06.367Z,102687.55
2019-02-27T01:31:36.022Z,102675.85
2019-02-27T01:34:11.113Z,102674.65
2019-02-27T01:36:37.856Z,102675.94
2019-02-27T01:39:08.967Z,102673.44
2019-02-27T01:41:41.341Z,102672.14
2019-02-27T01:44:13.451Z,102671.28
2019-02-27T01:46:42.322Z,102663.30
2019-02-27T01:49:15.881Z,102657.37
2019-02-27T01:51:43.391Z,102651.86
2019-02-27T01:54:14.993Z,102645.95
2019-02-27T01:56:44.773Z,102638.47
2019-02-27T01:59:16.887Z,102630.18
2019-02-27T02:01:45.846Z,102624.41
2019-02-27T02:04:20.068Z,102616.16
2019-02-27T02:06:47.369Z,102612.45
2019-02-27T02:09:34.214Z,102607.47
2019-02-27T02:12:08.669Z,102601.28
2019-02-27T02:14:44.697Z,102600.06
2019-02-27T02:17:52.077Z,102583.75
2019-02-27T02:20:42.998Z,102580.80
2019-02-27T02:23:29.176Z,102572.91
2019-02-27T02:26:18.542Z,102574.20
2019-02-27T02:29:03.152Z,102568.01
2019-02-27T02:31:44.737Z,102560.96
2019-02-27T02:34:41.363Z,102561.89
2019-02-27T02:37:33.756Z,102563.19
2019-02-27T02:40:16.379Z,102562.81
2019-02-27T02:43:09.087Z,102556.95
2019-02-27T02:46:08.788Z,102564.11
2019-02-27T02:48:54.841Z,102557.80
2019-02-27T02:51:45.540Z,102555.29
2019-02-27T02:54:18.241Z,102555.73
2019-02-27T02:57:00.527Z,102550.30
2019-02-27T02:59:36.625Z,102541.10
2019-02-27T03:02:09.406Z,102541.52
2019-02-27T03:05:05.043Z,102536.08
2019-02-27T03:08:01.528Z,102530.21
2019-02-27T03:11:10.069Z,102520.98
2019-02-27T03:14:10.075Z,102527.66
2019-02-27T03:17:00.037Z,102518.87
2019-02-27T03:19:32.701Z,102517.58
2019-02-27T03:22:14.589Z,102513.78
2019-02-27T03:25:08.427Z,102515.84
2019-02-27T03:27:44.687Z,102507.87
2019-02-27T03:30:36.502Z,102504.50
2019-02-27T03:33:23.661Z,102500.27
2019-02-27T03:36:04.230Z,102495.64
2019-02-27T03:38:59.163Z,102494.35
2019-02-27T03:41:58.264Z,102485.56
2019-02-27T03:44:49.522Z,102482.69
2019-02-27T03:47:27.828Z,102485.20
2019-02-27T03:50:15.805Z,102478.14
2019-02-27T03:53:10.871Z,102470.64
2019-02-27T03:55:59.501Z,102463.55
2019-02-27T03:58:40.980Z,102464.88
2019-02-27T04:01:37.555Z,102458.19
2019-02-27T04:04:38.919Z,102448.59
2019-02-27T04:07:12.042Z,102445.70
2019-02-27T04:09:41.668Z,102434.84
2019-02-27T04:12:16.084Z,102428.59
2019-02-27T04:14:42.614Z,102428.66
2019-02-27T04:17:12.298Z,102419.55
2019-02-27T04:19:42.250Z,102414.58
2019-02-27T04:22:12.043Z,102412.94
2019-02-27T04:24:43.301Z,102402.92
2019-02-27T04:27:12.908Z,102402.95
2019-02-27T04:29:42.572Z,102399.61
2019-02-27T04:32:13.145Z,102393.34
2019-02-27T04:34:44.763Z,102396.70
2019-02-27T04:37:15.055Z,102390.41
2019-02-27T04:39:44.677Z,102387.52
2019-02-27T04:42:14.289Z,102385.84
2019-02-27T04:44:43.943Z,102382.13
2019-02-27T04:47:13.676Z,102382.25
2019-02-27T04:49:43.294Z,102374.75
2019-02-27T04:52:12.949Z,102361.38
2019-02-27T04:54:42.565Z,102371.05
2019-02-27T04:57:12.180Z,102368.53
2019-02-27T04:59:41.867Z,102366.02
2019-02-27T05:02:12.142Z,102365.61
2019-02-27T05:04:42.846Z,102366.84
2019-02-27T05:07:12.502Z,102365.56
2019-02-27T05:09:42.114Z,102364.28
2019-02-27T05:12:12.400Z,102364.69
2019-02-27T05:14:42.072Z,102367.20
2019-02-27T05:17:12.278Z,102362.64
2019-02-27T05:19:41.901Z,102363.48
2019-02-27T05:22:11.710Z,102356.34
2019-02-27T05:24:41.572Z,102353.45
2019-02-27T05:27:11.357Z,102350.58
2019-02-27T05:29:41.019Z,102344.38
2019-02-27T05:32:10.639Z,102343.55
2019-02-27T05:34:40.332Z,102340.62
2019-02-27T05:37:10.012Z,102343.98
2019-02-27T05:39:39.638Z,102333.91
2019-02-27T05:42:10.203Z,102325.53
2019-02-27T05:44:39.858Z,102323.42
2019-02-27T05:47:11.104Z,102306.66
2019-02-27T05:49:40.954Z,102316.73
2019-02-27T05:52:11.835Z,102307.89
2019-02-27T05:54:42.145Z,102315.89
2019-02-27T05:57:12.126Z,102312.52
2019-02-27T05:59:41.770Z,102312.45
2019-02-27T06:02:11.530Z,102309.93
2019-02-27T06:04:41.235Z,102302.37
2019-02-27T06:07:10.924Z,102293.97
2019-02-27T06:09:41.447Z,102292.30
2019-02-27T06:12:12.058Z,102287.30
2019-02-27T06:14:43.591Z,102281.84
2019-02-27T06:17:14.701Z,102276.05
2019-02-27T06:19:45.985Z,102279.00
2019-02-27T06:22:15.658Z,102276.50
2019-02-27T06:24:45.724Z,102268.95
2019-02-27T06:27:16.000Z,102266.46
2019-02-27T06:29:45.778Z,102255.17
2019-02-27T06:32:15.405Z,102255.57
2019-02-27T06:34:45.705Z,102243.87
2019-02-27T06:37:16.105Z,102244.29
2019-02-27T06:39:45.937Z,102238.42
2019-02-27T06:42:16.295Z,102239.67
2019-02-27T06:44:45.938Z,102248.91
2019-02-27T06:47:15.570Z,102238.84
2019-02-27T06:49:45.979Z,102235.91
2019-02-27T06:52:15.752Z,102227.14
2019-02-27T06:54:45.459Z,102238.91
2019-02-27T06:57:15.278Z,102235.15
2019-02-27T06:59:45.021Z,102233.90
2019-02-27T07:02:14.640Z,102221.33
2019-02-27T07:04:44.261Z,102220.48
2019-02-27T07:07:13.959Z,102219.66
2019-02-27T07:09:45.798Z,102209.17
2019-02-27T07:12:15.039Z,102202.91
2019-02-27T07:14:45.050Z,102203.32
2019-02-27T07:17:14.665Z,102196.17
2019-02-27T07:19:47.329Z,102200.80
2019-02-27T07:22:16.091Z,102193.65
2019-02-27T07:24:45.715Z,102188.63
2019-02-27T07:27:15.342Z,102186.94
2019-02-27T07:29:45.045Z,102189.87
2019-02-27T07:32:16.336Z,102178.94
2019-02-27T07:34:46.736Z,102180.18
2019-02-27T07:37:17.805Z,102177.23
2019-02-27T07:39:47.497Z,102170.50
2019-02-27T07:42:17.160Z,102178.91
2019-02-27T07:44:46.819Z,102173.88
2019-02-27T07:47:18.900Z,102169.66
2019-02-27T07:49:48.718Z,102172.17
2019-02-27T07:52:18.424Z,102172.98
2019-02-27T07:54:48.529Z,102164.12
2019-02-27T07:57:18.791Z,102159.05
2019-02-27T07:59:48.459Z,102160.69
2019-02-27T08:02:18.976Z,102155.17
2019-02-27T08:04:48.868Z,102158.09
2019-02-27T08:07:18.828Z,102153.44
2019-02-27T08:09:48.451Z,102158.00
2019-02-27T08:12:19.928Z,102159.25
2019-02-27T08:14:49.560Z,102151.26
2019-02-27T08:17:19.182Z,102154.19
2019-02-27T08:19:48.948Z,102143.64
2019-02-27T08:22:18.908Z,102142.32
2019-02-27T08:24:48.899Z,102134.31
2019-02-27T08:27:18.529Z,102132.55
2019-02-27T08:29:48.963Z,102124.91
2019-02-27T08:32:18.956Z,102128.63
2019-02-27T08:34:48.581Z,102120.53
2019-02-27T08:37:20.249Z,102125.48
2019-02-27T08:39:49.960Z,102122.89
2019-02-27T08:42:19.593Z,102127.85
2019-02-27T08:44:49.277Z,102108.40
2019-02-27T08:47:18.896Z,102114.22
2019-02-27T08:49:48.537Z,102103.19
2019-02-27T08:52:19.074Z,102096.41
2019-02-27T08:54:48.699Z,102104.80
2019-02-27T08:57:19.099Z,102089.16
2019-02-27T08:59:49.088Z,102089.16
2019-02-27T09:02:18.723Z,102081.11
2019-02-27T09:04:49.011Z,102074.75
2019-02-27T09:07:18.671Z,102067.95
2019-02-27T09:09:51.242Z,102066.64
2019-02-27T09:12:20.852Z,102060.23
2019-02-27T09:14:50.551Z,102054.70
2019-02-27T09:17:20.535Z,102052.58
2019-02-27T09:19:50.734Z,102036.52
2019-02-27T09:22:20.954Z,102058.07
2019-02-27T09:24:50.713Z,102047.52
2019-02-27T09:27:21.008Z,102042.89
2019-02-27T09:29:52.362Z,102038.67
2019-02-27T09:32:22.083Z,102033.56
2019-02-27T09:34:52.382Z,102031.83
2019-02-27T09:37:22.609Z,102025.88
2019-02-27T09:39:52.702Z,102028.77
2019-02-27T09:42:22.334Z,102023.29
2019-02-27T09:44:55.443Z,102009.74
2019-02-27T09:47:25.899Z,102005.80
2019-02-27T09:49:58.881Z,102000.57
2019-02-27T09:52:30.093Z,101990.70
2019-02-27T09:54:59.861Z,101990.10
2019-02-27T09:57:29.591Z,101989.49
2019-02-27T09:59:59.958Z,101976.17
2019-02-27T10:02:31.054Z,101977.27
2019-02-27T10:05:02.889Z,101969.77
2019-02-27T10:07:32.117Z,101956.88
2019-02-27T10:10:01.739Z,101955.75
2019-02-27T10:12:31.365Z,101966.03
2019-02-27T10:15:01.162Z,101930.67
2019-02-27T10:17:30.783Z,101941.78
2019-02-27T10:20:02.472Z,101933.14
2019-02-27T10:22:32.137Z,101928.33
2019-02-27T10:25:01.758Z,101918.86
2019-02-27T10:27:31.532Z,101916.56
2019-02-27T10:30:01.227Z,101915.97
2019-02-27T10:32:31.663Z,101917.52
2019-02-27T10:35:02.033Z,101909.36
2019-02-27T10:37:32.676Z,101909.98
2019-02-27T10:40:02.639Z,101900.87
2019-02-27T10:42:32.263Z,101898.50
2019-02-27T10:45:02.015Z,101902.08
2019-02-27T10:47:33.665Z,101887.39
2019-02-27T10:50:05.070Z,101887.56
2019-02-27T10:52:34.808Z,101890.99
2019-02-27T10:55:07.449Z,101892.38
2019-02-27T10:57:38.481Z,101878.95
2019-02-27T11:00:24.833Z,101875.75
2019-02-27T11:02:52.582Z,101863.68
2019-02-27T11:05:22.770Z,101853.75
2019-02-27T11:07:53.058Z,101853.52
2019-02-27T11:10:25.055Z,101846.83
2019-02-27T11:12:54.861Z,101858.48
2019-02-27T11:15:24.544Z,101832.06
2019-02-27T11:17:54.201Z,101832.27
2019-02-27T11:20:24.753Z,101824.72
2019-02-27T11:22:54.549Z,101823.02
2019-02-27T11:25:29.146Z,101818.95
2019-02-27T11:27:58.937Z,101797.64
2019-02-27T11:30:35.946Z,101799.27
2019-02-27T11:33:03.536Z,101796.39
2019-02-27T11:35:33.536Z,101810.98
2019-02-27T11:38:03.443Z,101794.84
2019-02-27T11:40:33.539Z,101796.69
2019-02-27T11:43:06.564Z,101790.81
2019-02-27T11:45:34.620Z,101767.96
2019-02-27T11:48:04.428Z,101763.70
2019-02-27T11:50:34.058Z,101756.08
2019-02-27T11:53:03.996Z,101777.80
2019-02-27T11:55:35.155Z,101758.38
2019-02-27T11:58:05.607Z,101760.83
2019-02-27T12:00:36.247Z,101736.61
2019-02-27T12:03:05.882Z,101724.12
2019-02-27T12:05:35.547Z,101721.66
2019-02-27T12:08:06.786Z,101721.13
2019-02-27T12:10:36.420Z,101729.34
2019-02-27T12:13:06.468Z,101725.82
2019-02-27T12:15:36.153Z,101712.52
2019-02-27T12:18:05.778Z,101710.22
2019-02-27T12:20:35.812Z,101702.17
2019-02-27T12:23:07.501Z,101700.42
2019-02-27T12:25:37.445Z,101689.45
2019-02-27T12:28:09.381Z,101673.25
2019-02-27T12:30:41.004Z,101669.76
2019-02-27T12:33:10.912Z,101665.22
2019-02-27T12:35:44.205Z,101666.08
2019-02-27T12:38:13.667Z,101657.98
2019-02-27T12:40:43.297Z,101649.58
2019-02-27T12:43:17.362Z,101656.63
2019-02-27T12:45:46.432Z,101658.59
2019-02-27T12:48:16.059Z,101651.53
2019-02-27T12:50:45.803Z,101631.58
2019-02-27T12:53:15.584Z,101638.00
2019-02-27T12:55:45.218Z,101626.64
2019-02-27T12:58:14.850Z,101633.98
2019-02-27T13:00:44.522Z,101627.76
2019-02-27T13:03:14.145Z,101633.26
2019-02-27T13:05:43.941Z,101602.34
2019-02-27T13:08:16.327Z,101602.56
2019-02-27T13:10:45.020Z,101602.91
2019-02-27T13:13:14.675Z,101584.39
2019-02-27T13:15:44.345Z,101588.80
2019-02-27T13:18:14.291Z,101585.27
2019-02-27T13:20:45.663Z,101588.19
2019-02-27T13:23:15.707Z,101594.91
2019-02-27T13:25:45.329Z,101587.78
2019-02-27T13:28:15.706Z,101568.47
2019-02-27T13:30:45.686Z,101557.19
2019-02-27T13:33:15.438Z,101537.34
2019-02-27T13:35:45.078Z,101537.34
2019-02-27T13:38:17.737Z,101538.98
2019-02-27T13:40:46.084Z,101527.27
2019-02-27T13:43:15.719Z,101533.01
2019-02-27T13:45:47.613Z,101533.02
2019-02-27T13:48:16.912Z,101524.48
2019-02-27T13:50:46.708Z,101498.84
2019-02-27T13:53:16.388Z,101490.37
2019-02-27T13:55:48.150Z,101491.48
2019-02-27T13:58:17.331Z,101467.94
2019-02-27T14:00:47.690Z,101467.31
2019-02-27T14:03:18.169Z,101484.22
2019-02-27T14:05:47.977Z,101484.95
2019-02-27T14:08:18.590Z,101482.08
2019-02-27T14:10:50.509Z,101472.66
2019-02-27T14:13:19.544Z,101470.65
2019-02-27T14:15:49.230Z,101478.91
2019-02-27T14:18:18.887Z,101460.70
2019-02-27T14:20:48.702Z,101472.30
2019-02-27T14:23:18.388Z,101463.66
2019-02-27T14:25:47.998Z,101466.22
2019-02-27T14:28:18.271Z,101467.29
2019-02-27T14:30:52.596Z,101465.97
2019-02-27T14:33:22.600Z,101449.97
2019-02-27T14:35:55.694Z,101444.86
2019-02-27T14:38:25.347Z,101440.34
2019-02-27T14:40:54.974Z,101453.03
2019-02-27T14:43:27.157Z,101443.11
2019-02-27T14:45:55.982Z,101440.06
2019-02-27T14:48:27.482Z,101431.88
2019-02-27T14:50:57.111Z,101426.35
2019-02-27T14:53:26.914Z,101443.02
2019-02-27T14:55:57.510Z,101440.52
2019-02-27T14:58:27.319Z,101442.73
2019-02-27T15:00:57.016Z,101443.30
2019-02-27T15:03:29.227Z,101434.14
2019-02-27T15:05:58.789Z,101452.28
2019-02-27T15:08:28.631Z,101452.45
2019-02-27T15:10:58.255Z,101429.91
2019-02-27T15:13:28.305Z,101433.23
2019-02-27T15:16:00.408Z,101436.05
2019-02-27T15:18:30.614Z,101436.15
2019-02-27T15:21:00.355Z,101448.08
2019-02-27T15:23:30.310Z,101440.73
2019-02-27T15:26:00.725Z,101433.09
2019-02-27T15:28:33.338Z,101425.77
2019-02-27T15:31:01.929Z,101413.73
2019-02-27T15:33:31.686Z,101403.50
2019-02-27T15:36:02.051Z,101422.95
2019-02-27T15:38:31.842Z,101398.88
2019-02-27T15:41:03.214Z,101406.23
2019-02-27T15:43:32.944Z,101389.23
2019-02-27T15:46:02.798Z,101414.30
2019-02-27T15:48:32.995Z,101403.27
2019-02-27T15:51:02.745Z,101404.84
2019-02-27T15:53:32.412Z,101390.26
2019-02-27T15:56:02.045Z,101397.56
2019-02-27T15:58:31.795Z,101391.22
2019-02-27T16:01:01.460Z,101415.36
2019-02-27T16:03:31.088Z,101388.88
2019-02-27T16:06:05.212Z,101392.15
2019-02-27T16:08:33.228Z,101377.36
2019-02-27T16:11:02.861Z,101383.67
2019-02-27T16:13:34.703Z,101382.40
2019-02-27T16:16:04.742Z,101379.80
2019-02-27T16:18:37.083Z,101369.15
2019-02-27T16:21:05.938Z,101372.36
2019-02-27T16:23:37.465Z,101362.17
2019-02-27T16:26:06.947Z,101360.80
2019-02-27T16:28:36.579Z,101347.53
2019-02-27T16:31:07.151Z,101348.72
2019-02-27T16:33:36.878Z,101374.44
2019-02-27T16:36:06.501Z,101348.47
2019-02-27T16:38:37.173Z,101337.76
2019-02-27T16:41:07.671Z,101327.02
2019-02-27T16:43:37.299Z,101313.70
2019-02-27T16:46:08.868Z,101307.94
2019-02-27T16:48:38.537Z,101316.53
2019-02-27T16:51:08.169Z,101309.19
2019-02-27T16:53:37.858Z,101297.95
2019-02-27T16:56:08.362Z,101323.09
2019-02-27T16:58:38.930Z,101300.06
2019-02-27T17:01:08.661Z,101301.93
2019-02-27T17:03:38.406Z,101310.11
2019-02-27T17:06:08.143Z,101281.48
2019-02-27T17:08:38.007Z,101283.78
2019-02-27T17:11:08.482Z,101266.17
2019-02-27T17:13:38.590Z,101270.07
2019-02-27T17:16:10.668Z,101279.48
2019-02-27T17:18:40.797Z,101277.04
2019-02-27T17:21:10.788Z,101264.47
2019-02-27T17:23:43.813Z,101246.79
2019-02-27T17:26:12.237Z,101259.92
2019-02-27T17:28:41.918Z,101243.92
2019-02-27T17:31:12.211Z,101256.66
2019-02-27T17:33:43.255Z,101260.89
2019-02-27T17:36:12.881Z,101248.35
2019-02-27T17:38:45.281Z,101248.31
2019-02-27T17:41:14.888Z,101250.42
2019-02-27T17:43:45.182Z,101240.75
2019-02-27T17:46:15.174Z,101241.68
2019-02-27T17:48:45.954Z,101235.05
2019-02-27T17:51:16.317Z,101230.47
2019-02-27T17:53:46.072Z,101236.84
2019-02-27T17:56:16.255Z,101231.00
2019-02-27T17:58:46.510Z,101231.91
2019-02-27T18:01:17.822Z,101219.73
2019-02-27T18:03:47.465Z,101212.16
2019-02-27T18:06:17.091Z,101208.03
2019-02-27T18:08:49.144Z,101200.86
2019-02-27T18:11:18.390Z,101218.20
2019-02-27T18:13:48.022Z,101203.36
2019-02-27T18:16:20.195Z,101199.50
2019-02-27T18:18:49.827Z,101205.89
2019-02-27T18:21:19.442Z,101194.99
2019-02-27T18:23:49.195Z,101201.45
2019-02-27T18:26:18.956Z,101187.13
2019-02-27T18:28:48.595Z,101187.19
2019-02-27T18:31:18.471Z,101172.09
2019-02-27T18:33:50.164Z,101174.66
2019-02-27T18:36:19.404Z,101176.02
2019-02-27T18:38:51.358Z,101176.52
2019-02-27T18:41:20.975Z,101168.09
2019-02-27T18:43:52.977Z,101158.42
2019-02-27T18:46:24.717Z,101159.35
2019-02-27T18:48:53.925Z,101155.98
2019-02-27T18:51:24.284Z,101154.34
2019-02-27T18:53:54.038Z,101154.81
2019-02-27T18:56:23.676Z,101145.22
2019-02-27T18:58:55.631Z,101138.16
2019-02-27T19:01:24.794Z,101137.28
2019-02-27T19:04:00.245Z,101151.70
2019-02-27T19:06:30.035Z,101146.24
2019-02-27T19:09:00.620Z,101146.24
2019-02-27T19:11:30.359Z,101147.11
2019-02-27T19:14:02.374Z,101157.73
2019-02-27T19:16:31.478Z,101134.55
2019-02-27T19:19:01.111Z,101132.55
2019-02-27T19:21:33.493Z,101140.66
2019-02-27T19:24:02.407Z,101124.61
2019-02-27T19:26:32.939Z,101127.61
2019-02-27T19:29:02.582Z,101120.08
2019-02-27T19:31:32.331Z,101126.87
2019-02-27T19:34:01.958Z,101110.88
2019-02-27T19:36:31.587Z,101123.56
2019-02-27T19:39:01.262Z,101094.55
2019-02-27T19:41:30.995Z,101084.86
2019-02-27T19:44:00.796Z,101070.17
2019-02-27T19:46:30.503Z,101066.38
2019-02-27T19:49:00.879Z,101067.58
2019-02-27T19:51:33.959Z,101055.86
2019-02-27T19:54:03.740Z,101095.08
2019-02-27T19:56:35.524Z,101047.44
2019-02-27T19:59:04.933Z,101036.61
2019-02-27T20:01:34.619Z,101033.31
2019-02-27T20:04:09.187Z,101029.08
2019-02-27T20:06:38.475Z,101034.24
2019-02-27T20:09:09.223Z,101012.30
2019-02-27T20:11:40.281Z,101005.61
2019-02-27T20:14:10.436Z,101014.09
2019-02-27T20:16:40.130Z,100999.34
2019-02-27T20:19:10.547Z,100987.89
2019-02-27T20:21:44.308Z,101002.28
2019-02-27T20:24:14.717Z,100975.75
2019-02-27T20:26:44.732Z,100977.94
2019-02-27T20:29:14.953Z,100986.80
2019-02-27T20:31:44.802Z,100957.73
2019-02-27T20:34:14.587Z,100971.65
2019-02-27T20:36:44.318Z,100977.25
2019-02-27T20:39:14.093Z,100987.53
2019-02-27T20:41:44.122Z,100971.45
2019-02-27T20:44:13.836Z,100962.27
2019-02-27T20:46:46.437Z,100965.33
2019-02-27T20:49:14.940Z,100962.36
2019-02-27T20:51:47.113Z,100961.20
2019-02-27T20:54:16.899Z,100948.64
2019-02-27T20:56:55.536Z,100943.69
2019-02-27T20:59:24.690Z,100938.23
2019-02-27T21:01:52.223Z,100934.10
2019-02-27T21:04:22.158Z,100928.68
2019-02-27T21:06:51.771Z,100937.09
2019-02-27T21:09:22.123Z,100938.89
2019-02-27T21:11:51.750Z,100920.42
2019-02-27T21:14:23.570Z,100921.63
2019-02-27T21:16:52.989Z,100920.09
2019-02-27T21:19:22.616Z,100908.08
2019-02-27T21:21:54.435Z,100898.06
2019-02-27T21:24:24.604Z,100893.97
2019-02-27T21:26:57.293Z,100900.76
2019-02-27T21:29:26.011Z,100906.72
2019-02-27T21:31:58.337Z,100891.27
2019-02-27T21:34:31.300Z,100890.01
2019-02-27T21:37:01.107Z,100890.61
2019-02-27T21:39:30.877Z,100886.09
2019-02-27T21:42:00.678Z,100879.47
2019-02-27T21:44:30.330Z,100874.94
2019-02-27T21:47:01.514Z,100869.95
2019-02-27T21:49:32.102Z,100855.25
2019-02-27T21:52:02.443Z,100882.66
2019-02-27T21:54:32.255Z,100868.75
2019-02-27T21:57:01.890Z,100869.66
2019-02-27T21:59:36.406Z,100853.65
2019-02-27T22:02:05.718Z,100845.63
2019-02-27T22:04:35.364Z,100838.95
2019-02-27T22:07:07.497Z,100840.17
2019-02-27T22:09:37.178Z,100843.53
2019-02-27T22:12:06.918Z,100832.56
2019-02-27T22:14:36.546Z,100822.45
2019-02-27T22:17:06.271Z,100824.97
2019-02-27T22:19:35.914Z,100822.91
2019-02-27T22:22:08.075Z,100809.44
2019-02-27T22:24:37.040Z,100809.84
2019-02-27T22:27:09.209Z,100800.16
2019-02-27T22:29:38.166Z,100808.18
2019-02-27T22:32:07.823Z,100811.14
2019-02-27T22:34:37.465Z,100796.03
2019-02-27T22:37:07.088Z,100795.64
2019-02-27T22:39:37.043Z,100794.38
2019-02-27T22:42:06.674Z,100790.11
2019-02-27T22:44:36.306Z,100795.53
2019-02-27T22:47:06.065Z,100780.80
2019-02-27T22:49:36.361Z,100775.75
2019-02-27T22:52:05.986Z,100769.83
2019-02-27T22:54:35.993Z,100772.79
2019-02-27T22:57:06.462Z,100760.14
2019-02-27T22:59:37.377Z,100761.91
2019-02-27T23:02:07.829Z,100755.30
2019-02-27T23:04:37.462Z,100757.50
2019-02-27T23:07:07.085Z,100752.55
2019-02-27T23:09:36.927Z,100744.60
2019-02-27T23:12:08.548Z,100730.80
2019-02-27T23:14:38.548Z,100727.91
2019-02-27T23:17:09.385Z,100719.44
2019-02-27T23:19:43.732Z,100702.97
2019-02-27T23:22:12.294Z,100701.59
2019-02-27T23:24:43.908Z,100685.06
2019-02-27T23:27:14.190Z,100689.08
2019-02-27T23:29:44.517Z,100683.98
2019-02-27T23:32:14.134Z,100671.73
2019-02-27T23:34:44.148Z,100686.41
2019-02-27T23:37:13.974Z,100672.45
2019-02-27T23:39:44.348Z,100667.77
2019-02-27T23:42:13.984Z,100650.79
2019-02-27T23:44:43.708Z,100653.20
2019-02-27T23:47:13.992Z,100630.37
2019-02-27T23:49:43.623Z,100639.15
2019-02-27T23:52:13.287Z,100627.23
2019-02-27T23:54:42.929Z,100620.42
2019-02-27T23:57:13.632Z,100614.86
2019-02-27T23:59:44.985Z,100602.93
